sensor_id;sensor_type;location;lat;lon;timestamp;temperature;humidity
67163;DHT22;54092;53.088;8.850;2023-05-29T00:02:01;10.10;99.90
67163;DHT22;54092;53.088;8.850;2023-05-29T00:04:27;10.10;99.90
67163;DHT22;54092;53.088;8.850;2023-05-29T00:06:52;10.10;99.90
67163;DHT22;54092;53.088;8.850;2023-05-29T00:09:18;10.10;99.90
67163;DHT22;54092;53.088;8.850;2023-05-29T00:11:43;10.00;99.90
67163;DHT22;54092;53.088;8.850;2023-05-29T00:14:09;10.00;99.90
67163;DHT22;54092;53.088;8.850;2023-05-29T00:16:39;10.00;99.90
67163;DHT22;54092;53.088;8.850;2023-05-29T00:19:05;10.00;99.90
67163;DHT22;54092;53.088;8.850;2023-05-29T00:21:30;10.00;99.90
67163;DHT22;54092;53.088;8.850;2023-05-29T00:23:56;10.00;99.90
67163;DHT22;54092;53.088;8.850;2023-05-29T00:26:21;9.90;99.90
67163;DHT22;54092;53.088;8.850;2023-05-29T00:28:47;10.00;99.90
67163;DHT22;54092;53.088;8.850;2023-05-29T00:31:12;10.00;99.90
67163;DHT22;54092;53.088;8.850;2023-05-29T00:33:38;10.00;99.90
67163;DHT22;54092;53.088;8.850;2023-05-29T00:36:03;9.90;99.90
67163;DHT22;54092;53.088;8.850;2023-05-29T00:38:30;9.90;99.90
67163;DHT22;54092;53.088;8.850;2023-05-29T00:40:56;9.90;99.90
67163;DHT22;54092;53.088;8.850;2023-05-29T00:43:21;9.90;99.90
67163;DHT22;54092;53.088;8.850;2023-05-29T00:45:47;9.90;99.90
67163;DHT22;54092;53.088;8.850;2023-05-29T00:48:12;9.90;99.90
67163;DHT22;54092;53.088;8.850;2023-05-29T00:50:38;9.90;99.90
67163;DHT22;54092;53.088;8.850;2023-05-29T00:53:04;9.80;99.90
67163;DHT22;54092;53.088;8.850;2023-05-29T00:55:31;9.80;99.90
67163;DHT22;54092;53.088;8.850;2023-05-29T00:57:57;9.80;99.90
67163;DHT22;54092;53.088;8.850;2023-05-29T01:00:23;9.80;99.90
67163;DHT22;54092;53.088;8.850;2023-05-29T01:02:48;9.70;99.90
67163;DHT22;54092;53.088;8.850;2023-05-29T01:05:14;9.70;99.90
67163;DHT22;54092;53.088;8.850;2023-05-29T01:07:43;9.70;99.90
67163;DHT22;54092;53.088;8.850;2023-05-29T01:10:10;9.70;99.90
67163;DHT22;54092;53.088;8.850;2023-05-29T01:13:03;9.70;99.90
67163;DHT22;54092;53.088;8.850;2023-05-29T01:15:46;9.60;99.90
67163;DHT22;54092;53.088;8.850;2023-05-29T01:18:39;9.60;99.90
67163;DHT22;54092;53.088;8.850;2023-05-29T01:21:14;9.60;99.90
67163;DHT22;54092;53.088;8.850;2023-05-29T01:24:01;9.60;99.90
67163;DHT22;54092;53.088;8.850;2023-05-29T01:26:58;9.50;99.90
67163;DHT22;54092;53.088;8.850;2023-05-29T01:29:28;9.50;99.90
67163;DHT22;54092;53.088;8.850;2023-05-29T01:31:54;9.50;99.90
67163;DHT22;54092;53.088;8.850;2023-05-29T01:34:21;9.40;99.90
67163;DHT22;54092;53.088;8.850;2023-05-29T01:36:47;9.40;99.90
67163;DHT22;54092;53.088;8.850;2023-05-29T01:39:13;9.40;99.90
67163;DHT22;54092;53.088;8.850;2023-05-29T01:41:39;9.40;99.90
67163;DHT22;54092;53.088;8.850;2023-05-29T01:44:07;9.30;99.90
67163;DHT22;54092;53.088;8.850;2023-05-29T01:46:37;9.30;99.90
67163;DHT22;54092;53.088;8.850;2023-05-29T01:49:04;9.30;99.90
67163;DHT22;54092;53.088;8.850;2023-05-29T01:51:29;9.20;99.90
67163;DHT22;54092;53.088;8.850;2023-05-29T01:53:57;9.30;99.90
67163;DHT22;54092;53.088;8.850;2023-05-29T01:56:24;9.20;99.90
67163;DHT22;54092;53.088;8.850;2023-05-29T01:58:53;9.20;99.90
67163;DHT22;54092;53.088;8.850;2023-05-29T02:01:21;9.10;99.90
67163;DHT22;54092;53.088;8.850;2023-05-29T02:03:47;9.10;99.90
67163;DHT22;54092;53.088;8.850;2023-05-29T02:06:13;9.10;99.90
67163;DHT22;54092;53.088;8.850;2023-05-29T02:08:38;9.10;99.90
67163;DHT22;54092;53.088;8.850;2023-05-29T02:11:04;9.10;99.90
67163;DHT22;54092;53.088;8.850;2023-05-29T02:13:29;9.00;99.90
67163;DHT22;54092;53.088;8.850;2023-05-29T02:15:55;9.00;99.90
67163;DHT22;54092;53.088;8.850;2023-05-29T02:18:21;9.00;99.90
67163;DHT22;54092;53.088;8.850;2023-05-29T02:20:46;9.00;99.90
67163;DHT22;54092;53.088;8.850;2023-05-29T02:23:12;8.90;99.90
67163;DHT22;54092;53.088;8.850;2023-05-29T02:25:38;8.90;99.90
67163;DHT22;54092;53.088;8.850;2023-05-29T02:28:04;8.90;99.90
67163;DHT22;54092;53.088;8.850;2023-05-29T02:30:30;8.90;99.90
67163;DHT22;54092;53.088;8.850;2023-05-29T02:32:56;8.90;99.90
67163;DHT22;54092;53.088;8.850;2023-05-29T02:35:21;8.90;99.90
67163;DHT22;54092;53.088;8.850;2023-05-29T02:37:49;8.90;99.90
67163;DHT22;54092;53.088;8.850;2023-05-29T02:40:14;8.90;99.90
67163;DHT22;54092;53.088;8.850;2023-05-29T02:42:40;8.90;99.90
67163;DHT22;54092;53.088;8.850;2023-05-29T02:45:06;8.90;99.90
67163;DHT22;54092;53.088;8.850;2023-05-29T02:47:31;8.90;99.90
67163;DHT22;54092;53.088;8.850;2023-05-29T02:49:57;8.80;99.90
67163;DHT22;54092;53.088;8.850;2023-05-29T02:52:22;8.80;99.90
67163;DHT22;54092;53.088;8.850;2023-05-29T02:54:48;8.80;99.90
67163;DHT22;54092;53.088;8.850;2023-05-29T02:57:14;8.70;99.90
67163;DHT22;54092;53.088;8.850;2023-05-29T02:59:39;8.70;99.90
67163;DHT22;54092;53.088;8.850;2023-05-29T03:02:05;8.70;99.90
67163;DHT22;54092;53.088;8.850;2023-05-29T03:04:32;8.60;99.90
67163;DHT22;54092;53.088;8.850;2023-05-29T03:06:57;8.60;99.90
67163;DHT22;54092;53.088;8.850;2023-05-29T03:09:23;8.60;99.90
67163;DHT22;54092;53.088;8.850;2023-05-29T03:11:49;8.60;99.90
67163;DHT22;54092;53.088;8.850;2023-05-29T03:14:16;8.50;99.90
67163;DHT22;54092;53.088;8.850;2023-05-29T03:16:43;8.50;99.90
67163;DHT22;54092;53.088;8.850;2023-05-29T03:19:09;8.50;99.90
67163;DHT22;54092;53.088;8.850;2023-05-29T03:21:34;8.50;99.90
67163;DHT22;54092;53.088;8.850;2023-05-29T03:24:01;8.50;99.90
67163;DHT22;54092;53.088;8.850;2023-05-29T03:26:28;8.50;99.90
67163;DHT22;54092;53.088;8.850;2023-05-29T03:28:53;8.50;99.90
67163;DHT22;54092;53.088;8.850;2023-05-29T03:31:19;8.50;99.90
67163;DHT22;54092;53.088;8.850;2023-05-29T03:33:44;8.50;99.90
67163;DHT22;54092;53.088;8.850;2023-05-29T03:36:11;8.50;99.90
67163;DHT22;54092;53.088;8.850;2023-05-29T03:38:36;8.50;99.90
67163;DHT22;54092;53.088;8.850;2023-05-29T03:41:02;8.50;99.90
67163;DHT22;54092;53.088;8.850;2023-05-29T03:43:28;8.60;99.90
67163;DHT22;54092;53.088;8.850;2023-05-29T03:45:53;8.60;99.90
67163;DHT22;54092;53.088;8.850;2023-05-29T03:48:19;8.50;99.90
67163;DHT22;54092;53.088;8.850;2023-05-29T03:50:46;8.60;99.90
67163;DHT22;54092;53.088;8.850;2023-05-29T03:53:12;8.60;99.90
67163;DHT22;54092;53.088;8.850;2023-05-29T03:55:37;8.60;99.90
67163;DHT22;54092;53.088;8.850;2023-05-29T03:58:03;8.70;99.90
67163;DHT22;54092;53.088;8.850;2023-05-29T04:00:28;8.70;99.90
67163;DHT22;54092;53.088;8.850;2023-05-29T04:02:55;8.70;99.90
67163;DHT22;54092;53.088;8.850;2023-05-29T04:05:21;8.70;99.90
67163;DHT22;54092;53.088;8.850;2023-05-29T04:07:46;8.70;99.90
67163;DHT22;54092;53.088;8.850;2023-05-29T04:10:12;8.70;99.90
67163;DHT22;54092;53.088;8.850;2023-05-29T04:12:38;8.80;99.90
67163;DHT22;54092;53.088;8.850;2023-05-29T04:15:04;8.80;99.90
67163;DHT22;54092;53.088;8.850;2023-05-29T04:17:29;8.80;99.90
67163;DHT22;54092;53.088;8.850;2023-05-29T04:19:55;8.80;99.90
67163;DHT22;54092;53.088;8.850;2023-05-29T04:22:20;8.80;99.90
67163;DHT22;54092;53.088;8.850;2023-05-29T04:24:46;8.90;99.90
67163;DHT22;54092;53.088;8.850;2023-05-29T04:27:12;8.90;99.90
67163;DHT22;54092;53.088;8.850;2023-05-29T04:29:41;8.90;99.90
67163;DHT22;54092;53.088;8.850;2023-05-29T04:32:08;9.00;99.90
67163;DHT22;54092;53.088;8.850;2023-05-29T04:34:35;9.00;99.90
67163;DHT22;54092;53.088;8.850;2023-05-29T04:37:02;9.00;99.90
67163;DHT22;54092;53.088;8.850;2023-05-29T04:39:28;9.10;99.90
67163;DHT22;54092;53.088;8.850;2023-05-29T04:41:54;9.10;99.90
67163;DHT22;54092;53.088;8.850;2023-05-29T04:44:19;9.20;99.90
67163;DHT22;54092;53.088;8.850;2023-05-29T04:46:45;9.20;99.90
67163;DHT22;54092;53.088;8.850;2023-05-29T04:49:12;9.30;99.90
67163;DHT22;54092;53.088;8.850;2023-05-29T04:51:38;9.30;99.90
67163;DHT22;54092;53.088;8.850;2023-05-29T04:54:06;9.40;99.90
67163;DHT22;54092;53.088;8.850;2023-05-29T04:56:32;9.50;99.90
67163;DHT22;54092;53.088;8.850;2023-05-29T04:58:57;9.50;99.90
67163;DHT22;54092;53.088;8.850;2023-05-29T05:01:24;9.60;99.90
67163;DHT22;54092;53.088;8.850;2023-05-29T05:03:49;9.70;99.90
67163;DHT22;54092;53.088;8.850;2023-05-29T05:06:15;9.70;99.90
67163;DHT22;54092;53.088;8.850;2023-05-29T05:08:42;9.70;99.90
67163;DHT22;54092;53.088;8.850;2023-05-29T05:11:07;9.80;99.90
67163;DHT22;54092;53.088;8.850;2023-05-29T05:13:33;9.70;99.90
67163;DHT22;54092;53.088;8.850;2023-05-29T05:15:59;9.80;99.90
67163;DHT22;54092;53.088;8.850;2023-05-29T05:18:24;9.70;99.90
67163;DHT22;54092;53.088;8.850;2023-05-29T05:20:50;9.80;99.90
67163;DHT22;54092;53.088;8.850;2023-05-29T05:23:15;9.90;99.90
67163;DHT22;54092;53.088;8.850;2023-05-29T05:25:41;10.10;99.90
67163;DHT22;54092;53.088;8.850;2023-05-29T05:28:07;10.10;99.90
67163;DHT22;54092;53.088;8.850;2023-05-29T05:30:33;10.20;99.90
67163;DHT22;54092;53.088;8.850;2023-05-29T05:32:58;10.30;99.90
67163;DHT22;54092;53.088;8.850;2023-05-29T05:35:24;10.20;99.90
67163;DHT22;54092;53.088;8.850;2023-05-29T05:37:50;10.20;99.90
67163;DHT22;54092;53.088;8.850;2023-05-29T05:40:15;10.20;99.90
67163;DHT22;54092;53.088;8.850;2023-05-29T05:42:41;10.30;99.90
67163;DHT22;54092;53.088;8.850;2023-05-29T05:45:07;10.40;99.90
67163;DHT22;54092;53.088;8.850;2023-05-29T05:47:33;10.50;99.90
67163;DHT22;54092;53.088;8.850;2023-05-29T05:49:59;10.70;99.90
67163;DHT22;54092;53.088;8.850;2023-05-29T05:52:25;10.80;99.90
67163;DHT22;54092;53.088;8.850;2023-05-29T05:54:51;10.80;99.90
67163;DHT22;54092;53.088;8.850;2023-05-29T05:57:17;10.90;99.90
67163;DHT22;54092;53.088;8.850;2023-05-29T05:59:43;10.90;99.90
67163;DHT22;54092;53.088;8.850;2023-05-29T06:02:08;11.00;99.90
67163;DHT22;54092;53.088;8.850;2023-05-29T06:04:34;11.20;99.90
67163;DHT22;54092;53.088;8.850;2023-05-29T06:07:00;11.30;99.90
67163;DHT22;54092;53.088;8.850;2023-05-29T06:09:25;11.40;99.90
67163;DHT22;54092;53.088;8.850;2023-05-29T06:11:51;11.30;99.90
67163;DHT22;54092;53.088;8.850;2023-05-29T06:14:16;11.20;99.90
67163;DHT22;54092;53.088;8.850;2023-05-29T06:16:42;11.30;99.90
67163;DHT22;54092;53.088;8.850;2023-05-29T06:19:08;11.40;99.90
67163;DHT22;54092;53.088;8.850;2023-05-29T06:21:34;11.40;99.90
67163;DHT22;54092;53.088;8.850;2023-05-29T06:23:59;11.30;99.90
67163;DHT22;54092;53.088;8.850;2023-05-29T06:26:25;11.50;99.90
67163;DHT22;54092;53.088;8.850;2023-05-29T06:28:52;11.50;99.90
67163;DHT22;54092;53.088;8.850;2023-05-29T06:31:17;11.60;99.90
67163;DHT22;54092;53.088;8.850;2023-05-29T06:33:43;11.60;99.90
67163;DHT22;54092;53.088;8.850;2023-05-29T06:36:09;11.60;99.90
67163;DHT22;54092;53.088;8.850;2023-05-29T06:38:34;11.70;99.90
67163;DHT22;54092;53.088;8.850;2023-05-29T06:41:00;11.80;99.90
67163;DHT22;54092;53.088;8.850;2023-05-29T06:43:27;11.80;99.90
67163;DHT22;54092;53.088;8.850;2023-05-29T06:45:53;11.90;99.90
67163;DHT22;54092;53.088;8.850;2023-05-29T06:48:19;12.00;99.90
67163;DHT22;54092;53.088;8.850;2023-05-29T06:50:44;12.10;99.90
67163;DHT22;54092;53.088;8.850;2023-05-29T06:53:10;12.00;99.90
67163;DHT22;54092;53.088;8.850;2023-05-29T06:55:35;12.00;99.90
67163;DHT22;54092;53.088;8.850;2023-05-29T06:58:01;12.10;99.90
67163;DHT22;54092;53.088;8.850;2023-05-29T07:00:26;11.90;99.90
67163;DHT22;54092;53.088;8.850;2023-05-29T07:02:53;11.90;99.90
67163;DHT22;54092;53.088;8.850;2023-05-29T07:05:18;12.10;99.90
67163;DHT22;54092;53.088;8.850;2023-05-29T07:07:44;12.20;99.90
67163;DHT22;54092;53.088;8.850;2023-05-29T07:10:09;12.30;99.90
67163;DHT22;54092;53.088;8.850;2023-05-29T07:12:35;12.30;99.90
67163;DHT22;54092;53.088;8.850;2023-05-29T07:15:01;12.30;99.90
67163;DHT22;54092;53.088;8.850;2023-05-29T07:17:26;12.30;99.90
67163;DHT22;54092;53.088;8.850;2023-05-29T07:19:51;12.50;99.90
67163;DHT22;54092;53.088;8.850;2023-05-29T07:22:19;12.70;99.90
67163;DHT22;54092;53.088;8.850;2023-05-29T07:24:45;12.70;99.90
67163;DHT22;54092;53.088;8.850;2023-05-29T07:27:10;12.90;99.90
67163;DHT22;54092;53.088;8.850;2023-05-29T07:29:36;13.10;99.90
67163;DHT22;54092;53.088;8.850;2023-05-29T07:32:01;13.20;99.90
67163;DHT22;54092;53.088;8.850;2023-05-29T07:34:27;13.20;99.90
67163;DHT22;54092;53.088;8.850;2023-05-29T07:37:01;13.10;99.90
67163;DHT22;54092;53.088;8.850;2023-05-29T07:39:27;13.10;99.90
67163;DHT22;54092;53.088;8.850;2023-05-29T07:41:52;13.30;99.90
67163;DHT22;54092;53.088;8.850;2023-05-29T07:44:18;13.30;99.90
67163;DHT22;54092;53.088;8.850;2023-05-29T07:46:44;13.50;99.90
67163;DHT22;54092;53.088;8.850;2023-05-29T07:49:10;13.70;99.90
67163;DHT22;54092;53.088;8.850;2023-05-29T07:51:35;13.70;99.90
67163;DHT22;54092;53.088;8.850;2023-05-29T07:54:01;13.60;99.90
67163;DHT22;54092;53.088;8.850;2023-05-29T07:56:26;13.60;99.90
67163;DHT22;54092;53.088;8.850;2023-05-29T07:58:52;13.70;99.90
67163;DHT22;54092;53.088;8.850;2023-05-29T08:01:20;14.00;99.90
67163;DHT22;54092;53.088;8.850;2023-05-29T08:03:46;14.20;99.90
67163;DHT22;54092;53.088;8.850;2023-05-29T08:06:12;14.10;99.90
67163;DHT22;54092;53.088;8.850;2023-05-29T08:08:38;14.20;99.90
67163;DHT22;54092;53.088;8.850;2023-05-29T08:11:04;14.30;99.90
67163;DHT22;54092;53.088;8.850;2023-05-29T08:13:30;14.50;99.90
67163;DHT22;54092;53.088;8.850;2023-05-29T08:15:56;14.60;99.90
67163;DHT22;54092;53.088;8.850;2023-05-29T08:18:25;14.70;99.90
67163;DHT22;54092;53.088;8.850;2023-05-29T08:20:51;15.00;99.90
67163;DHT22;54092;53.088;8.850;2023-05-29T08:23:18;15.00;99.90
67163;DHT22;54092;53.088;8.850;2023-05-29T08:25:43;15.00;99.90
67163;DHT22;54092;53.088;8.850;2023-05-29T08:28:09;15.20;99.90
67163;DHT22;54092;53.088;8.850;2023-05-29T08:30:35;15.30;99.90
67163;DHT22;54092;53.088;8.850;2023-05-29T08:33:00;15.30;99.90
67163;DHT22;54092;53.088;8.850;2023-05-29T08:35:26;15.50;99.90
67163;DHT22;54092;53.088;8.850;2023-05-29T08:37:51;15.70;99.90
67163;DHT22;54092;53.088;8.850;2023-05-29T08:40:17;15.70;99.90
67163;DHT22;54092;53.088;8.850;2023-05-29T08:42:47;16.00;99.90
67163;DHT22;54092;53.088;8.850;2023-05-29T08:45:13;16.20;99.90
67163;DHT22;54092;53.088;8.850;2023-05-29T08:47:40;16.10;99.90
67163;DHT22;54092;53.088;8.850;2023-05-29T08:50:06;15.80;99.90
67163;DHT22;54092;53.088;8.850;2023-05-29T08:52:34;15.80;99.90
67163;DHT22;54092;53.088;8.850;2023-05-29T08:55:03;16.10;99.90
67163;DHT22;54092;53.088;8.850;2023-05-29T08:57:30;16.50;99.90
67163;DHT22;54092;53.088;8.850;2023-05-29T08:59:56;16.90;99.90
67163;DHT22;54092;53.088;8.850;2023-05-29T09:02:22;17.30;99.90
67163;DHT22;54092;53.088;8.850;2023-05-29T09:04:48;17.40;99.90
67163;DHT22;54092;53.088;8.850;2023-05-29T09:07:19;17.60;99.90
67163;DHT22;54092;53.088;8.850;2023-05-29T09:09:45;18.10;99.90
67163;DHT22;54092;53.088;8.850;2023-05-29T09:12:11;18.60;99.90
67163;DHT22;54092;53.088;8.850;2023-05-29T09:14:39;18.70;99.90
67163;DHT22;54092;53.088;8.850;2023-05-29T09:17:06;19.10;99.90
67163;DHT22;54092;53.088;8.850;2023-05-29T09:19:34;19.60;99.90
67163;DHT22;54092;53.088;8.850;2023-05-29T09:22:04;20.10;99.90
67163;DHT22;54092;53.088;8.850;2023-05-29T09:24:32;20.20;99.90
67163;DHT22;54092;53.088;8.850;2023-05-29T09:26:59;20.40;99.90
67163;DHT22;54092;53.088;8.850;2023-05-29T09:29:25;20.50;99.90
67163;DHT22;54092;53.088;8.850;2023-05-29T09:31:51;20.90;99.90
67163;DHT22;54092;53.088;8.850;2023-05-29T09:34:16;20.90;99.90
67163;DHT22;54092;53.088;8.850;2023-05-29T09:36:42;20.50;99.90
67163;DHT22;54092;53.088;8.850;2023-05-29T09:39:07;20.40;99.90
67163;DHT22;54092;53.088;8.850;2023-05-29T09:41:42;20.80;99.90
67163;DHT22;54092;53.088;8.850;2023-05-29T09:44:14;21.40;99.90
67163;DHT22;54092;53.088;8.850;2023-05-29T09:46:43;21.40;99.90
67163;DHT22;54092;53.088;8.850;2023-05-29T09:49:12;21.60;99.90
67163;DHT22;54092;53.088;8.850;2023-05-29T09:51:38;21.10;99.90
67163;DHT22;54092;53.088;8.850;2023-05-29T09:54:17;21.20;99.90
67163;DHT22;54092;53.088;8.850;2023-05-29T09:56:43;21.20;99.90
67163;DHT22;54092;53.088;8.850;2023-05-29T09:59:13;21.40;99.90
67163;DHT22;54092;53.088;8.850;2023-05-29T10:01:43;21.70;99.90
67163;DHT22;54092;53.088;8.850;2023-05-29T10:04:12;21.50;99.90
67163;DHT22;54092;53.088;8.850;2023-05-29T10:06:39;21.60;99.90
67163;DHT22;54092;53.088;8.850;2023-05-29T10:09:09;21.80;99.90
67163;DHT22;54092;53.088;8.850;2023-05-29T10:11:37;21.80;99.90
67163;DHT22;54092;53.088;8.850;2023-05-29T10:14:04;22.50;99.90
67163;DHT22;54092;53.088;8.850;2023-05-29T10:16:31;22.80;99.90
67163;DHT22;54092;53.088;8.850;2023-05-29T10:19:01;22.40;99.90
67163;DHT22;54092;53.088;8.850;2023-05-29T10:21:33;21.70;99.90
67163;DHT22;54092;53.088;8.850;2023-05-29T10:24:05;20.90;99.90
67163;DHT22;54092;53.088;8.850;2023-05-29T10:26:36;21.00;99.90
67163;DHT22;54092;53.088;8.850;2023-05-29T10:29:24;21.30;99.90
67163;DHT22;54092;53.088;8.850;2023-05-29T10:32:18;22.10;99.90
67163;DHT22;54092;53.088;8.850;2023-05-29T10:35:23;22.00;99.90
67163;DHT22;54092;53.088;8.850;2023-05-29T10:37:57;22.30;99.90
67163;DHT22;54092;53.088;8.850;2023-05-29T10:40:26;22.20;99.90
67163;DHT22;54092;53.088;8.850;2023-05-29T10:42:52;22.60;99.90
67163;DHT22;54092;53.088;8.850;2023-05-29T10:50:45;23.10;99.90
67163;DHT22;54092;53.088;8.850;2023-05-29T10:53:15;22.40;99.90
67163;DHT22;54092;53.088;8.850;2023-05-29T10:55:42;21.80;99.90
67163;DHT22;54092;53.088;8.850;2023-05-29T10:58:23;22.20;99.90
67163;DHT22;54092;53.088;8.850;2023-05-29T11:00:50;22.20;99.90
67163;DHT22;54092;53.088;8.850;2023-05-29T11:03:25;22.70;99.90
67163;DHT22;54092;53.088;8.850;2023-05-29T11:06:17;22.30;99.90
67163;DHT22;54092;53.088;8.850;2023-05-29T11:08:56;22.60;99.90
67163;DHT22;54092;53.088;8.850;2023-05-29T11:13:54;22.20;99.90
67163;DHT22;54092;53.088;8.850;2023-05-29T11:18:56;22.30;99.90
67163;DHT22;54092;53.088;8.850;2023-05-29T11:24:21;21.50;99.90
67163;DHT22;54092;53.088;8.850;2023-05-29T11:26:47;21.10;99.90
67163;DHT22;54092;53.088;8.850;2023-05-29T11:29:12;21.00;99.90
67163;DHT22;54092;53.088;8.850;2023-05-29T11:31:39;21.10;99.90
67163;DHT22;54092;53.088;8.850;2023-05-29T11:34:09;21.70;99.90
67163;DHT22;54092;53.088;8.850;2023-05-29T11:36:39;21.70;99.90
67163;DHT22;54092;53.088;8.850;2023-05-29T11:39:05;21.80;99.90
67163;DHT22;54092;53.088;8.850;2023-05-29T11:41:30;22.30;99.90
67163;DHT22;54092;53.088;8.850;2023-05-29T11:44:00;22.80;99.90
67163;DHT22;54092;53.088;8.850;2023-05-29T11:46:31;22.60;99.90
67163;DHT22;54092;53.088;8.850;2023-05-29T11:48:58;22.40;99.90
67163;DHT22;54092;53.088;8.850;2023-05-29T11:51:24;22.30;99.90
67163;DHT22;54092;53.088;8.850;2023-05-29T11:53:51;22.10;99.90
67163;DHT22;54092;53.088;8.850;2023-05-29T11:56:27;22.20;99.90
67163;DHT22;54092;53.088;8.850;2023-05-29T11:58:53;22.30;99.90
67163;DHT22;54092;53.088;8.850;2023-05-29T12:01:25;22.50;99.90
67163;DHT22;54092;53.088;8.850;2023-05-29T12:03:51;22.80;99.90
67163;DHT22;54092;53.088;8.850;2023-05-29T12:06:30;22.90;99.90
67163;DHT22;54092;53.088;8.850;2023-05-29T12:08:57;22.70;99.90
67163;DHT22;54092;53.088;8.850;2023-05-29T12:11:25;22.90;99.90
67163;DHT22;54092;53.088;8.850;2023-05-29T12:13:58;22.70;99.90
67163;DHT22;54092;53.088;8.850;2023-05-29T12:16:25;22.70;99.90
67163;DHT22;54092;53.088;8.850;2023-05-29T12:18:52;22.70;99.90
67163;DHT22;54092;53.088;8.850;2023-05-29T12:21:17;22.70;99.90
67163;DHT22;54092;53.088;8.850;2023-05-29T12:23:43;21.90;99.90
67163;DHT22;54092;53.088;8.850;2023-05-29T12:26:09;21.50;99.90
67163;DHT22;54092;53.088;8.850;2023-05-29T12:28:34;21.80;99.90
67163;DHT22;54092;53.088;8.850;2023-05-29T12:31:00;21.80;99.90
67163;DHT22;54092;53.088;8.850;2023-05-29T12:33:29;21.20;99.90
67163;DHT22;54092;53.088;8.850;2023-05-29T12:36:11;20.80;99.90
67163;DHT22;54092;53.088;8.850;2023-05-29T12:38:49;20.70;99.90
67163;DHT22;54092;53.088;8.850;2023-05-29T12:41:33;20.60;99.90
67163;DHT22;54092;53.088;8.850;2023-05-29T12:44:01;20.20;99.90
67163;DHT22;54092;53.088;8.850;2023-05-29T12:46:34;20.00;99.90
67163;DHT22;54092;53.088;8.850;2023-05-29T12:49:17;19.80;99.90
67163;DHT22;54092;53.088;8.850;2023-05-29T12:51:46;19.50;99.90
67163;DHT22;54092;53.088;8.850;2023-05-29T12:54:15;19.40;99.90
67163;DHT22;54092;53.088;8.850;2023-05-29T12:56:42;19.30;99.90
67163;DHT22;54092;53.088;8.850;2023-05-29T12:59:08;19.10;99.90
67163;DHT22;54092;53.088;8.850;2023-05-29T13:01:35;19.10;99.90
67163;DHT22;54092;53.088;8.850;2023-05-29T13:04:01;18.90;99.90
67163;DHT22;54092;53.088;8.850;2023-05-29T13:06:26;18.60;99.90
67163;DHT22;54092;53.088;8.850;2023-05-29T13:08:52;18.60;99.90
67163;DHT22;54092;53.088;8.850;2023-05-29T13:11:18;18.30;99.90
67163;DHT22;54092;53.088;8.850;2023-05-29T13:13:43;17.90;99.90
67163;DHT22;54092;53.088;8.850;2023-05-29T13:16:12;17.80;99.90
67163;DHT22;54092;53.088;8.850;2023-05-29T13:18:37;17.80;99.90
67163;DHT22;54092;53.088;8.850;2023-05-29T13:21:03;17.60;99.90
67163;DHT22;54092;53.088;8.850;2023-05-29T13:23:28;17.70;99.90
67163;DHT22;54092;53.088;8.850;2023-05-29T13:25:54;17.80;99.90
67163;DHT22;54092;53.088;8.850;2023-05-29T13:28:19;17.90;99.90
67163;DHT22;54092;53.088;8.850;2023-05-29T13:30:46;17.80;99.90
67163;DHT22;54092;53.088;8.850;2023-05-29T13:33:12;17.60;99.90
67163;DHT22;54092;53.088;8.850;2023-05-29T13:35:37;17.50;99.90
67163;DHT22;54092;53.088;8.850;2023-05-29T13:38:03;17.40;99.90
67163;DHT22;54092;53.088;8.850;2023-05-29T13:40:28;17.30;99.90
67163;DHT22;54092;53.088;8.850;2023-05-29T13:42:54;17.40;99.90
67163;DHT22;54092;53.088;8.850;2023-05-29T13:45:20;17.40;99.90
67163;DHT22;54092;53.088;8.850;2023-05-29T13:47:46;17.40;99.90
67163;DHT22;54092;53.088;8.850;2023-05-29T13:50:11;17.30;99.90
67163;DHT22;54092;53.088;8.850;2023-05-29T13:52:37;17.40;99.90
67163;DHT22;54092;53.088;8.850;2023-05-29T13:55:03;17.40;99.90
67163;DHT22;54092;53.088;8.850;2023-05-29T13:57:34;17.50;99.90
67163;DHT22;54092;53.088;8.850;2023-05-29T14:00:00;17.50;99.90
67163;DHT22;54092;53.088;8.850;2023-05-29T14:02:25;17.50;99.90
67163;DHT22;54092;53.088;8.850;2023-05-29T14:04:51;17.40;99.90
67163;DHT22;54092;53.088;8.850;2023-05-29T14:07:17;17.50;99.90
67163;DHT22;54092;53.088;8.850;2023-05-29T14:09:42;17.60;99.90
67163;DHT22;54092;53.088;8.850;2023-05-29T14:12:08;17.70;99.90
67163;DHT22;54092;53.088;8.850;2023-05-29T14:14:34;17.70;99.90
67163;DHT22;54092;53.088;8.850;2023-05-29T14:17:00;17.50;99.90
67163;DHT22;54092;53.088;8.850;2023-05-29T14:19:25;17.30;99.90
67163;DHT22;54092;53.088;8.850;2023-05-29T14:21:51;17.30;99.90
67163;DHT22;54092;53.088;8.850;2023-05-29T14:24:17;17.30;99.90
67163;DHT22;54092;53.088;8.850;2023-05-29T14:26:44;17.40;99.90
67163;DHT22;54092;53.088;8.850;2023-05-29T14:29:12;17.40;99.90
67163;DHT22;54092;53.088;8.850;2023-05-29T14:31:42;17.40;99.90
67163;DHT22;54092;53.088;8.850;2023-05-29T14:34:08;17.40;99.90
67163;DHT22;54092;53.088;8.850;2023-05-29T14:36:34;17.40;99.90
67163;DHT22;54092;53.088;8.850;2023-05-29T14:39:00;17.40;99.90
67163;DHT22;54092;53.088;8.850;2023-05-29T14:41:26;17.60;99.90
67163;DHT22;54092;53.088;8.850;2023-05-29T14:43:52;17.70;99.90
67163;DHT22;54092;53.088;8.850;2023-05-29T14:46:17;17.70;99.90
67163;DHT22;54092;53.088;8.850;2023-05-29T14:48:43;17.60;99.90
67163;DHT22;54092;53.088;8.850;2023-05-29T14:51:08;17.50;99.90
67163;DHT22;54092;53.088;8.850;2023-05-29T14:53:35;17.30;99.90
67163;DHT22;54092;53.088;8.850;2023-05-29T14:56:00;17.30;99.90
67163;DHT22;54092;53.088;8.850;2023-05-29T14:58:26;17.20;99.90
67163;DHT22;54092;53.088;8.850;2023-05-29T15:00:51;17.20;99.90
67163;DHT22;54092;53.088;8.850;2023-05-29T15:03:17;17.10;99.90
67163;DHT22;54092;53.088;8.850;2023-05-29T15:05:42;17.20;99.90
67163;DHT22;54092;53.088;8.850;2023-05-29T15:08:08;17.30;99.90
67163;DHT22;54092;53.088;8.850;2023-05-29T15:10:33;17.40;99.90
67163;DHT22;54092;53.088;8.850;2023-05-29T15:12:59;17.40;99.90
67163;DHT22;54092;53.088;8.850;2023-05-29T15:15:28;17.40;99.90
67163;DHT22;54092;53.088;8.850;2023-05-29T15:17:54;17.40;99.90
67163;DHT22;54092;53.088;8.850;2023-05-29T15:20:25;17.20;99.90
67163;DHT22;54092;53.088;8.850;2023-05-29T15:22:52;17.10;99.90
67163;DHT22;54092;53.088;8.850;2023-05-29T15:25:19;17.10;99.90
67163;DHT22;54092;53.088;8.850;2023-05-29T15:27:45;17.10;99.90
67163;DHT22;54092;53.088;8.850;2023-05-29T15:30:13;17.20;99.90
67163;DHT22;54092;53.088;8.850;2023-05-29T15:32:40;17.20;99.90
67163;DHT22;54092;53.088;8.850;2023-05-29T15:35:09;17.20;99.90
67163;DHT22;54092;53.088;8.850;2023-05-29T15:37:34;17.20;99.90
67163;DHT22;54092;53.088;8.850;2023-05-29T15:40:00;17.00;99.90
67163;DHT22;54092;53.088;8.850;2023-05-29T15:42:26;17.10;99.90
67163;DHT22;54092;53.088;8.850;2023-05-29T15:44:52;17.20;99.90
67163;DHT22;54092;53.088;8.850;2023-05-29T15:47:17;17.30;99.90
67163;DHT22;54092;53.088;8.850;2023-05-29T15:49:43;17.20;99.90